createdAt,value
2019-01-13T00:02:26.606Z,95430.78
2019-01-13T00:04:57.678Z,95432.16
2019-01-13T00:07:28.797Z,95439.53
2019-01-13T00:09:59.781Z,95442.63
2019-01-13T00:12:35.549Z,95445.28
2019-01-13T00:15:05.032Z,95438.41
2019-01-13T00:17:36.102Z,95428.39
2019-01-13T00:20:07.258Z,95437.45
2019-01-13T00:22:38.399Z,95431.66
2019-01-13T00:25:09.875Z,95439.20
2019-01-13T00:27:41.971Z,95424.07
2019-01-13T00:30:19.196Z,95454.23
2019-01-13T00:32:47.320Z,95437.05
2019-01-13T00:35:18.445Z,95432.88
2019-01-13T00:37:49.482Z,95442.25
2019-01-13T00:40:20.739Z,95440.16
2019-01-13T00:42:53.096Z,95444.94
2019-01-13T00:45:24.250Z,95441.53
2019-01-13T00:47:55.379Z,95451.42
2019-01-13T00:50:26.688Z,95437.36
2019-01-13T00:52:57.812Z,95438.78
2019-01-13T00:55:28.950Z,95424.38
2019-01-13T00:58:00.039Z,95438.70
2019-01-13T01:00:31.351Z,95442.39
2019-01-13T01:03:02.641Z,95439.29
2019-01-13T01:05:33.781Z,95432.61
2019-01-13T01:08:05.024Z,95431.98
2019-01-13T01:10:36.348Z,95436.17
2019-01-13T01:13:07.662Z,95435.57
2019-01-13T01:15:38.813Z,95443.83
2019-01-13T01:18:10.022Z,95438.45
2019-01-13T01:20:41.193Z,95439.67
2019-01-13T01:23:12.469Z,95439.42
2019-01-13T01:25:44.015Z,95436.61
2019-01-13T01:28:15.134Z,95430.89
2019-01-13T01:30:46.245Z,95429.02
2019-01-13T01:33:17.368Z,95428.48
2019-01-13T01:35:48.374Z,95428.39
2019-01-13T01:38:19.487Z,95441.86
2019-01-13T01:40:50.649Z,95432.80
2019-01-13T01:43:21.947Z,95440.02
2019-01-13T01:45:53.036Z,95440.70
2019-01-13T01:48:24.210Z,95440.73
2019-01-13T01:50:55.273Z,95435.33
2019-01-13T01:53:26.548Z,95431.92
2019-01-13T01:55:57.695Z,95437.36
2019-01-13T01:58:28.812Z,95436.70
2019-01-13T02:01:00.331Z,95430.64
2019-01-13T02:03:31.434Z,95434.86
2019-01-13T02:06:02.560Z,95428.30
2019-01-13T02:08:33.831Z,95435.67
2019-01-13T02:11:04.970Z,95438.23
2019-01-13T02:13:36.107Z,95431.36
2019-01-13T02:16:07.444Z,95440.02
2019-01-13T02:18:38.651Z,95434.17
2019-01-13T02:21:09.797Z,95440.64
2019-01-13T02:23:40.931Z,95449.61
2019-01-13T02:26:12.186Z,95437.36
2019-01-13T02:28:43.330Z,95437.73
2019-01-13T02:31:14.626Z,95448.30
2019-01-13T02:33:45.618Z,95425.94
2019-01-13T02:36:17.726Z,95442.05
2019-01-13T02:38:48.827Z,95436.86
2019-01-13T02:41:19.891Z,95435.36
2019-01-13T02:43:51.078Z,95439.02
2019-01-13T02:46:22.144Z,95435.48
2019-01-13T02:48:53.210Z,95429.22
2019-01-13T02:51:24.363Z,95433.36
2019-01-13T02:53:55.403Z,95420.66
2019-01-13T02:56:26.649Z,95434.48
2019-01-13T02:58:57.626Z,95428.13
2019-01-13T03:01:28.811Z,95430.70
2019-01-13T03:03:59.763Z,95417.69
2019-01-13T03:06:30.928Z,95419.69
2019-01-13T03:09:01.911Z,95445.05
2019-01-13T03:11:34.694Z,95427.31
2019-01-13T03:14:06.051Z,95423.99
2019-01-13T03:16:37.198Z,95435.25
2019-01-13T03:19:08.211Z,95424.23
2019-01-13T03:21:39.371Z,95421.67
2019-01-13T03:24:10.492Z,95432.65
2019-01-13T03:26:41.593Z,95420.73
2019-01-13T03:29:12.568Z,95419.67
2019-01-13T03:31:43.683Z,95429.27
2019-01-13T03:34:14.807Z,95417.98
2019-01-13T03:36:45.974Z,95418.56
2019-01-13T03:39:17.150Z,95423.84
2019-01-13T03:41:48.260Z,95421.35
2019-01-13T03:44:20.405Z,95420.73
2019-01-13T03:46:51.495Z,95436.08
2019-01-13T03:49:22.546Z,95432.30
2019-01-13T03:51:53.654Z,95421.26
2019-01-13T03:54:24.869Z,95419.79
2019-01-13T03:56:55.998Z,95419.82
2019-01-13T03:59:27.191Z,95416.20
2019-01-13T04:01:58.327Z,95422.36
2019-01-13T04:04:29.529Z,95429.32
2019-01-13T04:07:00.697Z,95419.27
2019-01-13T04:09:31.854Z,95422.70
2019-01-13T04:12:03.068Z,95414.89
2019-01-13T04:14:34.299Z,95410.38
2019-01-13T04:17:06.246Z,95420.64
2019-01-13T04:19:37.314Z,95419.84
2019-01-13T04:22:08.566Z,95428.06
2019-01-13T04:24:39.703Z,95418.84
2019-01-13T04:27:10.788Z,95414.72
2019-01-13T04:29:41.887Z,95419.50
2019-01-13T04:32:13.027Z,95412.58
2019-01-13T04:34:43.946Z,95419.66
2019-01-13T04:37:15.334Z,95418.78
2019-01-13T04:39:46.390Z,95424.83
2019-01-13T04:42:17.427Z,95415.34
2019-01-13T04:44:48.472Z,95412.01
2019-01-13T04:47:19.528Z,95411.86
2019-01-13T04:49:50.501Z,95406.16
2019-01-13T04:52:21.740Z,95404.98
2019-01-13T04:54:52.793Z,95410.19
2019-01-13T04:57:23.880Z,95420.44
2019-01-13T04:59:54.934Z,95415.23
2019-01-13T05:02:26.068Z,95407.47
2019-01-13T05:04:57.044Z,95419.63
2019-01-13T05:07:28.176Z,95416.20
2019-01-13T05:09:59.167Z,95405.42
2019-01-13T05:12:30.243Z,95410.74
2019-01-13T05:15:01.341Z,95403.38
2019-01-13T05:17:33.708Z,95405.56
2019-01-13T05:20:07.821Z,95419.48
2019-01-13T05:22:38.968Z,95402.56
2019-01-13T05:25:10.481Z,95409.36
2019-01-13T05:27:41.509Z,95419.85
2019-01-13T05:30:15.331Z,95407.84
2019-01-13T05:32:46.710Z,95406.62
2019-01-13T05:35:17.774Z,95409.75
2019-01-13T05:37:49.063Z,95408.89
2019-01-13T05:40:21.793Z,95414.93
2019-01-13T05:42:53.074Z,95409.33
2019-01-13T05:45:24.164Z,95401.77
2019-01-13T05:47:55.208Z,95397.69
2019-01-13T05:50:26.482Z,95413.88
2019-01-13T05:52:57.603Z,95411.66
2019-01-13T05:55:29.770Z,95415.03
2019-01-13T05:58:00.901Z,95408.05
2019-01-13T06:00:36.026Z,95418.02
2019-01-13T06:03:07.207Z,95415.45
2019-01-13T06:05:38.338Z,95415.41
2019-01-13T06:08:09.576Z,95414.08
2019-01-13T06:10:40.691Z,95410.37
2019-01-13T06:13:12.836Z,95412.98
2019-01-13T06:15:43.889Z,95422.48
2019-01-13T06:18:15.067Z,95418.68
2019-01-13T06:20:46.177Z,95417.78
2019-01-13T06:23:17.370Z,95418.83
2019-01-13T06:25:48.514Z,95413.70
2019-01-13T06:28:19.659Z,95423.48
2019-01-13T06:30:50.807Z,95416.88
2019-01-13T06:33:21.948Z,95404.87
2019-01-13T06:35:53.006Z,95411.04
2019-01-13T06:38:24.254Z,95408.28
2019-01-13T06:40:55.227Z,95403.14
2019-01-13T06:43:26.469Z,95403.14
2019-01-13T06:45:57.519Z,95400.64
2019-01-13T06:48:28.792Z,95392.94
2019-01-13T06:50:59.998Z,95403.58
2019-01-13T06:53:31.089Z,95400.48
2019-01-13T06:56:02.176Z,95406.95
2019-01-13T06:58:33.229Z,95401.48
2019-01-13T07:01:04.458Z,95402.29
2019-01-13T07:03:35.586Z,95395.63
2019-01-13T07:06:06.702Z,95401.48
2019-01-13T07:08:37.871Z,95398.58
2019-01-13T07:11:09.063Z,95415.94
2019-01-13T07:13:40.305Z,95394.59
2019-01-13T07:16:11.434Z,95396.73
2019-01-13T07:18:42.414Z,95393.53
2019-01-13T07:21:13.498Z,95396.44
2019-01-13T07:23:44.538Z,95391.59
2019-01-13T07:26:15.622Z,95387.23
2019-01-13T07:28:46.841Z,95393.50
2019-01-13T07:31:18.131Z,95386.80
2019-01-13T07:33:49.255Z,95392.16
2019-01-13T07:36:20.319Z,95383.66
2019-01-13T07:38:51.425Z,95392.45
2019-01-13T07:41:22.573Z,95377.23
2019-01-13T07:43:53.614Z,95365.40
2019-01-13T07:46:24.901Z,95380.77
2019-01-13T07:48:56.053Z,95385.55
2019-01-13T07:51:27.167Z,95376.67
2019-01-13T07:53:58.243Z,95375.83
2019-01-13T07:56:29.373Z,95368.13
2019-01-13T07:59:00.456Z,95363.50
2019-01-13T08:01:31.637Z,95376.58
2019-01-13T08:04:04.031Z,95379.32
2019-01-13T08:06:35.287Z,95378.41
2019-01-13T08:09:08.806Z,95372.86
2019-01-13T08:11:40.007Z,95372.22
2019-01-13T08:14:11.155Z,95370.67
2019-01-13T08:16:42.222Z,95372.66
2019-01-13T08:19:13.286Z,95368.23
2019-01-13T08:21:44.518Z,95365.23
2019-01-13T08:24:15.725Z,95369.08
2019-01-13T08:26:46.767Z,95358.10
2019-01-13T08:29:17.883Z,95367.02
2019-01-13T08:31:49.022Z,95363.51
2019-01-13T08:34:20.264Z,95359.58
2019-01-13T08:36:51.562Z,95363.23
2019-01-13T08:39:22.637Z,95363.09
2019-01-13T08:41:53.678Z,95359.23
2019-01-13T08:44:24.663Z,95356.23
2019-01-13T08:46:55.830Z,95346.08
2019-01-13T08:49:27.075Z,95344.79
2019-01-13T08:51:58.191Z,95345.00
2019-01-13T08:54:29.253Z,95333.34
2019-01-13T08:57:00.320Z,95335.80
2019-01-13T08:59:31.424Z,95334.66
2019-01-13T09:02:02.490Z,95344.47
2019-01-13T09:04:33.544Z,95335.34
2019-01-13T09:07:04.879Z,95334.55
2019-01-13T09:09:36.000Z,95337.02
2019-01-13T09:12:07.216Z,95341.17
2019-01-13T09:14:38.308Z,95342.39
2019-01-13T09:17:09.457Z,95346.25
2019-01-13T09:19:40.600Z,95356.16
2019-01-13T09:22:11.897Z,95354.17
2019-01-13T09:24:43.034Z,95344.23
2019-01-13T09:27:14.151Z,95348.92
2019-01-13T09:29:45.468Z,95343.92
2019-01-13T09:32:16.606Z,95341.00
2019-01-13T09:34:47.676Z,95340.41
2019-01-13T09:37:18.811Z,95341.95
2019-01-13T09:39:49.790Z,95347.78
2019-01-13T09:42:20.964Z,95333.30
2019-01-13T09:44:51.953Z,95328.87
2019-01-13T09:47:22.940Z,95326.66
2019-01-13T09:49:54.007Z,95320.33
2019-01-13T09:52:25.062Z,95300.95
2019-01-13T09:54:56.169Z,95287.84
2019-01-13T09:57:27.254Z,95286.33
2019-01-13T09:59:58.259Z,95290.77
2019-01-13T10:02:29.439Z,95280.61
2019-01-13T10:05:00.504Z,95275.94
2019-01-13T10:07:31.577Z,95270.44
2019-01-13T10:10:02.695Z,95261.77
2019-01-13T10:12:33.791Z,95262.59
2019-01-13T10:15:07.012Z,95254.42
2019-01-13T10:17:38.153Z,95263.28
2019-01-13T10:20:10.806Z,95242.96
2019-01-13T10:22:41.943Z,95244.94
2019-01-13T10:25:13.682Z,95248.46
2019-01-13T10:27:44.833Z,95244.94
2019-01-13T10:30:27.215Z,95226.24
2019-01-13T10:32:58.439Z,95223.45
2019-01-13T10:35:29.746Z,95223.92
2019-01-13T10:38:01.171Z,95216.55
2019-01-13T10:40:32.653Z,95203.72
2019-01-13T10:43:04.006Z,95191.45
2019-01-13T10:45:35.110Z,95197.89
2019-01-13T10:48:06.332Z,95194.14
2019-01-13T10:50:37.494Z,95189.23
2019-01-13T10:53:09.477Z,95195.09
2019-01-13T10:55:40.647Z,95203.72
2019-01-13T10:58:11.787Z,95189.84
2019-01-13T11:00:42.880Z,95186.20
2019-01-13T11:03:14.044Z,95194.02
2019-01-13T11:05:45.083Z,95172.44
2019-01-13T11:08:16.237Z,95188.55
2019-01-13T11:10:47.431Z,95173.56
2019-01-13T11:13:18.491Z,95166.13
2019-01-13T11:15:49.642Z,95175.33
2019-01-13T11:18:20.705Z,95161.43
2019-01-13T11:20:51.794Z,95148.45
2019-01-13T11:23:22.922Z,95137.61
2019-01-13T11:25:53.943Z,95132.70
2019-01-13T11:28:26.073Z,95120.47
2019-01-13T11:30:57.643Z,95122.89
2019-01-13T11:33:28.785Z,95112.86
2019-01-13T11:35:59.790Z,95093.86
2019-01-13T11:38:30.842Z,95111.72
2019-01-13T11:41:01.906Z,95102.03
2019-01-13T11:43:32.950Z,95094.06
2019-01-13T11:46:04.204Z,95091.16
2019-01-13T11:48:35.405Z,95077.16
2019-01-13T11:51:06.716Z,95103.50
2019-01-13T11:53:37.834Z,95084.03
2019-01-13T11:56:10.034Z,95063.03
2019-01-13T11:58:41.086Z,95060.59
2019-01-13T12:01:12.230Z,95075.16
2019-01-13T12:03:44.268Z,95043.20
2019-01-13T12:06:15.241Z,95033.75
2019-01-13T12:08:46.297Z,95029.78
2019-01-13T12:11:17.599Z,95028.52
2019-01-13T12:13:48.715Z,95036.66
2019-01-13T12:16:19.794Z,95002.74
2019-01-13T12:18:51.024Z,95003.30
2019-01-13T12:21:22.088Z,95007.52
2019-01-13T12:23:53.145Z,94984.66
2019-01-13T12:26:24.342Z,94981.41
2019-01-13T12:28:57.610Z,94971.36
2019-01-13T12:31:28.728Z,94964.95
2019-01-13T12:33:59.719Z,94944.67
2019-01-13T12:36:30.784Z,94946.53
2019-01-13T12:39:01.834Z,94942.46
2019-01-13T12:41:33.982Z,94928.59
2019-01-13T12:44:05.509Z,94921.61
2019-01-13T12:46:36.662Z,94937.44
2019-01-13T12:49:07.784Z,94921.73
2019-01-13T12:51:38.954Z,94911.72
2019-01-13T12:54:10.038Z,94917.88
2019-01-13T12:56:41.135Z,94914.40
2019-01-13T12:59:12.167Z,94910.78
2019-01-13T13:01:43.310Z,94904.01
2019-01-13T13:04:14.402Z,94904.23
2019-01-13T13:06:45.477Z,94900.28
2019-01-13T13:09:16.642Z,94891.19
2019-01-13T13:11:47.659Z,94876.25
2019-01-13T13:14:18.796Z,94883.72
2019-01-13T13:16:49.926Z,94866.46
2019-01-13T13:19:21.058Z,94865.98
2019-01-13T13:21:53.144Z,94861.33
2019-01-13T13:24:24.194Z,94847.70
2019-01-13T13:26:55.440Z,94850.05
2019-01-13T13:29:26.507Z,94867.41
2019-01-13T13:31:57.681Z,94849.45
2019-01-13T13:34:28.759Z,94856.81
2019-01-13T13:36:59.939Z,94845.05
2019-01-13T13:39:31.056Z,94840.48
2019-01-13T13:42:02.138Z,94844.44
2019-01-13T13:44:33.118Z,94830.00
2019-01-13T13:47:04.428Z,94837.22
2019-01-13T13:49:35.546Z,94835.02
2019-01-13T13:52:06.662Z,94811.00
2019-01-13T13:54:37.622Z,94842.23
2019-01-13T13:57:08.708Z,94822.53
2019-01-13T13:59:40.721Z,94858.30
2019-01-13T14:02:11.887Z,94807.00
2019-01-13T14:04:53.691Z,94811.55
2019-01-13T14:07:26.728Z,94805.59
2019-01-13T14:10:04.971Z,94803.03
2019-01-13T14:12:37.550Z,94796.93
2019-01-13T14:15:09.106Z,94829.70
2019-01-13T14:17:40.119Z,94793.52
2019-01-13T14:20:13.531Z,94817.56
2019-01-13T14:22:44.657Z,94806.34
2019-01-13T14:25:15.782Z,94827.86
2019-01-13T14:27:46.935Z,94781.80
2019-01-13T14:30:20.787Z,94774.09
2019-01-13T14:32:52.079Z,94767.34
2019-01-13T14:35:23.629Z,94756.33
2019-01-13T14:37:55.023Z,94761.08
2019-01-13T14:40:26.857Z,94748.15
2019-01-13T14:42:57.992Z,94748.41
2019-01-13T14:45:29.072Z,94727.37
2019-01-13T14:48:00.212Z,94719.30
2019-01-13T14:50:32.587Z,94729.87
2019-01-13T14:53:05.567Z,94715.51
2019-01-13T14:55:36.695Z,94701.77
2019-01-13T14:58:07.974Z,94695.98
2019-01-13T15:00:39.104Z,94687.69
2019-01-13T15:03:10.178Z,94694.02
2019-01-13T15:05:41.336Z,94678.16
2019-01-13T15:08:12.365Z,94689.63
2019-01-13T15:10:43.409Z,94660.55
2019-01-13T15:13:14.487Z,94673.65
2019-01-13T15:15:45.632Z,94665.55
2019-01-13T15:18:17.723Z,94673.50
2019-01-13T15:20:48.850Z,94668.73
2019-01-13T15:23:19.924Z,94672.63
2019-01-13T15:25:51.106Z,94666.66
2019-01-13T15:28:22.260Z,94652.77
2019-01-13T15:30:53.452Z,94648.83
2019-01-13T15:33:24.510Z,94675.53
2019-01-13T15:35:55.654Z,94647.42
2019-01-13T15:38:26.764Z,94627.35
2019-01-13T15:40:57.876Z,94626.47
2019-01-13T15:43:28.948Z,94629.64
2019-01-13T15:46:00.017Z,94623.14
2019-01-13T15:48:31.171Z,94662.36
2019-01-13T15:51:02.169Z,94614.78
2019-01-13T15:53:33.264Z,94591.94
2019-01-13T15:56:04.586Z,94607.13
2019-01-13T15:58:35.680Z,94581.71
2019-01-13T16:01:06.979Z,94597.73
2019-01-13T16:03:38.041Z,94573.14
2019-01-13T16:06:09.092Z,94598.13
2019-01-13T16:08:40.249Z,94601.45
2019-01-13T16:11:11.299Z,94583.20
2019-01-13T16:13:42.451Z,94577.45
2019-01-13T16:16:13.578Z,94605.06
2019-01-13T16:18:44.566Z,94582.86
2019-01-13T16:21:15.548Z,94565.90
2019-01-13T16:23:46.728Z,94558.54
2019-01-13T16:26:17.832Z,94565.29
2019-01-13T16:28:48.950Z,94553.53
2019-01-13T16:31:20.106Z,94599.73
2019-01-13T16:33:51.128Z,94571.78
2019-01-13T16:36:22.191Z,94565.85
2019-01-13T16:38:53.327Z,94552.33
2019-01-13T16:41:24.359Z,94544.80
2019-01-13T16:43:55.486Z,94551.97
2019-01-13T16:46:26.621Z,94539.41
2019-01-13T16:48:57.762Z,94530.66
2019-01-13T16:51:29.887Z,94533.91
2019-01-13T16:54:01.099Z,94516.72
2019-01-13T16:56:32.084Z,94541.98
2019-01-13T16:59:03.367Z,94515.23
2019-01-13T17:01:34.509Z,94505.69
2019-01-13T17:04:05.902Z,94524.37
2019-01-13T17:06:37.056Z,94498.27
2019-01-13T17:09:11.653Z,94498.17
2019-01-13T17:11:42.773Z,94505.44
2019-01-13T17:14:13.857Z,94514.76
2019-01-13T17:16:44.995Z,94539.63
2019-01-13T17:19:16.090Z,94518.55
2019-01-13T17:21:47.238Z,94526.91
2019-01-13T17:24:18.297Z,94557.31
2019-01-13T17:26:49.439Z,94514.04
2019-01-13T17:29:20.442Z,94514.72
2019-01-13T17:31:51.515Z,94513.43
2019-01-13T17:34:22.690Z,94497.27
2019-01-13T17:36:53.776Z,94493.08
2019-01-13T17:39:25.990Z,94499.70
2019-01-13T17:41:57.052Z,94493.41
2019-01-13T17:44:28.152Z,94510.47
2019-01-13T17:47:00.162Z,94494.06
2019-01-13T17:49:31.472Z,94523.58
2019-01-13T17:52:02.524Z,94478.27
2019-01-13T17:54:33.608Z,94499.83
2019-01-13T17:57:04.770Z,94466.98
2019-01-13T17:59:35.823Z,94464.46
2019-01-13T18:02:06.960Z,94466.74
2019-01-13T18:04:43.045Z,94465.45
2019-01-13T18:07:10.856Z,94494.53
2019-01-13T18:09:41.916Z,94487.86
2019-01-13T18:12:13.046Z,94511.69
2019-01-13T18:14:44.240Z,94450.47
2019-01-13T18:17:15.465Z,94478.59
2019-01-13T18:19:46.599Z,94455.86
2019-01-13T18:22:17.735Z,94440.84
2019-01-13T18:24:48.787Z,94442.19
2019-01-13T18:27:19.833Z,94444.55
2019-01-13T18:29:50.826Z,94443.47
2019-01-13T18:32:22.022Z,94431.41
2019-01-13T18:34:53.099Z,94445.75
2019-01-13T18:37:24.257Z,94438.33
2019-01-13T18:39:55.351Z,94431.59
2019-01-13T18:42:26.476Z,94431.27
2019-01-13T18:44:57.529Z,94440.11
2019-01-13T18:47:28.684Z,94425.39
2019-01-13T18:49:59.784Z,94435.45
2019-01-13T18:52:31.376Z,94441.84
2019-01-13T18:55:02.540Z,94442.84
2019-01-13T18:57:33.521Z,94431.20
2019-01-13T19:00:07.477Z,94422.55
2019-01-13T19:02:38.616Z,94416.96
2019-01-13T19:05:11.002Z,94424.59
2019-01-13T19:07:42.128Z,94399.56
2019-01-13T19:10:21.618Z,94387.70
2019-01-13T19:12:54.661Z,94408.92
2019-01-13T19:15:25.747Z,94384.55
2019-01-13T19:17:58.027Z,94408.57
2019-01-13T19:20:32.873Z,94414.20
2019-01-13T19:23:07.511Z,94385.49
2019-01-13T19:25:38.567Z,94394.98
2019-01-13T19:28:09.877Z,94372.58
2019-01-13T19:30:40.945Z,94374.34
2019-01-13T19:33:13.615Z,94367.39
2019-01-13T19:35:44.958Z,94379.45
2019-01-13T19:38:16.034Z,94360.77
2019-01-13T19:40:47.285Z,94340.05
2019-01-13T19:43:18.608Z,94361.42
2019-01-13T19:45:50.117Z,94342.03
2019-01-13T19:48:21.317Z,94335.43
2019-01-13T19:50:52.482Z,94345.27
2019-01-13T19:53:23.546Z,94346.02
2019-01-13T19:55:54.606Z,94343.81
2019-01-13T19:58:25.654Z,94349.14
2019-01-13T20:00:56.802Z,94371.02
2019-01-13T20:03:27.844Z,94361.03
2019-01-13T20:05:58.981Z,94367.11
2019-01-13T20:08:30.026Z,94337.24
2019-01-13T20:11:01.179Z,94333.06
2019-01-13T20:13:32.327Z,94372.04
2019-01-13T20:16:03.467Z,94349.67
2019-01-13T20:18:34.619Z,94360.84
2019-01-13T20:21:05.819Z,94354.06
2019-01-13T20:23:36.962Z,94330.78
2019-01-13T20:26:08.164Z,94328.70
2019-01-13T20:28:39.149Z,94334.52
2019-01-13T20:31:10.381Z,94323.27
2019-01-13T20:33:41.436Z,94317.31
2019-01-13T20:36:12.871Z,94331.34
2019-01-13T20:38:43.944Z,94319.75
2019-01-13T20:41:15.107Z,94298.24
2019-01-13T20:43:46.248Z,94288.88
2019-01-13T20:46:17.316Z,94287.66
2019-01-13T20:48:48.300Z,94276.35
2019-01-13T20:51:19.298Z,94271.02
2019-01-13T20:53:50.348Z,94267.45
2019-01-13T20:56:21.414Z,94272.97
2019-01-13T20:58:52.660Z,94280.84
2019-01-13T21:01:23.853Z,94275.55
2019-01-13T21:03:55.044Z,94255.40
2019-01-13T21:06:26.156Z,94259.64
2019-01-13T21:08:57.218Z,94258.46
2019-01-13T21:11:28.378Z,94263.67
2019-01-13T21:13:59.436Z,94270.23
2019-01-13T21:16:30.502Z,94265.08
2019-01-13T21:19:01.650Z,94284.14
2019-01-13T21:21:32.806Z,94273.98
2019-01-13T21:24:04.023Z,94279.87
2019-01-13T21:26:35.167Z,94287.00
2019-01-13T21:29:06.299Z,94250.62
2019-01-13T21:31:37.428Z,94277.18
2019-01-13T21:34:08.739Z,94273.23
2019-01-13T21:36:39.915Z,94257.45
2019-01-13T21:39:11.065Z,94251.50
2019-01-13T21:41:42.137Z,94249.73
2019-01-13T21:44:13.120Z,94249.54
2019-01-13T21:46:44.176Z,94262.25
2019-01-13T21:49:15.155Z,94247.77
2019-01-13T21:51:46.164Z,94256.93
2019-01-13T21:54:17.362Z,94245.33
2019-01-13T21:56:48.381Z,94266.24
2019-01-13T21:59:19.354Z,94261.72
2019-01-13T22:01:50.489Z,94258.60
2019-01-13T22:04:21.611Z,94250.88
2019-01-13T22:06:52.715Z,94242.98
2019-01-13T22:09:23.901Z,94238.48
2019-01-13T22:11:55.080Z,94261.09
2019-01-13T22:14:26.234Z,94242.88
2019-01-13T22:16:57.364Z,94249.00
2019-01-13T22:19:28.333Z,94254.63
2019-01-13T22:21:59.496Z,94237.70
2019-01-13T22:24:30.601Z,94231.21
2019-01-13T22:27:01.689Z,94229.97
2019-01-13T22:29:32.666Z,94244.51
2019-01-13T22:32:03.808Z,94239.65
2019-01-13T22:34:34.848Z,94269.83
2019-01-13T22:37:05.941Z,94251.80
2019-01-13T22:39:36.983Z,94283.48
2019-01-13T22:42:08.123Z,94283.94
2019-01-13T22:44:39.166Z,94292.61
2019-01-13T22:47:10.739Z,94325.57
2019-01-13T22:49:41.706Z,94316.72
2019-01-13T22:52:12.860Z,94297.20
2019-01-13T22:54:44.032Z,94352.61
2019-01-13T22:57:15.290Z,94301.77
2019-01-13T22:59:46.267Z,94293.23
2019-01-13T23:02:17.807Z,94306.95
2019-01-13T23:04:48.836Z,94300.88
2019-01-13T23:07:19.886Z,94301.93
2019-01-13T23:09:51.107Z,94304.97
2019-01-13T23:12:22.254Z,94299.12
2019-01-13T23:14:53.391Z,94307.92
2019-01-13T23:17:24.537Z,94322.40
2019-01-13T23:19:55.516Z,94305.69
2019-01-13T23:22:26.581Z,94312.00
2019-01-13T23:24:57.591Z,94305.06
2019-01-13T23:27:28.579Z,94303.57
2019-01-13T23:29:59.728Z,94302.56
2019-01-13T23:32:31.007Z,94324.41
2019-01-13T23:35:02.143Z,94307.23
2019-01-13T23:37:33.381Z,94321.18
2019-01-13T23:40:05.429Z,94332.55
2019-01-13T23:42:36.581Z,94333.89
2019-01-13T23:45:07.904Z,94334.20
2019-01-13T23:47:39.019Z,94334.78
2019-01-13T23:50:10.264Z,94324.17
2019-01-13T23:52:41.390Z,94332.56
2019-01-13T23:55:12.890Z,94309.34
2019-01-13T23:57:44.044Z,94314.73
